Vunisea, Fiji
Current Conditions -  °F | °C
As of 3:00 AM on Friday 31 Oct 2014 (Local Time) from NFNA Reporting Station
Broken Clouds Broken Clouds  
Wind Chill: 25°   Ceiling: 2000
Heat Index: 26°   Visibility: 6mi
Dew Point: 22°   Wind: 7mph
Humidity: 83%   Direction: 100°E
Pressure: 29.91"   Gusts: NA
Location:  19.05°S, 178.17°E
Report Text: NFNA 301500Z 10006KT 9999 BKN020 SCT045 25/22 Q1013
Loading
Personal Weather Stations






























Interactive Weather Map
Tropical Storm Tracking
New forecast layout! Learn more

10-Day Weather Forecast

Advertisements
Track Severe Weather on mobile